createdAt,value
2022-10-24T00:01:39.423Z,99565.81
2022-10-24T00:04:08.266Z,99542.09
2022-10-24T00:06:36.194Z,99572.03
2022-10-24T00:09:05.039Z,99574.84
2022-10-24T00:11:33.617Z,99534.91
2022-10-24T00:14:02.336Z,99525.72
2022-10-24T00:16:30.482Z,99559.63
2022-10-24T00:18:58.456Z,99549.56
2022-10-24T00:21:26.385Z,99569.72
2022-10-24T00:23:54.341Z,99565.78
2022-10-24T00:26:22.268Z,99530.81
2022-10-24T00:28:50.231Z,99582.00
2022-10-24T00:31:20.445Z,99578.66
2022-10-24T00:33:49.587Z,99506.47
2022-10-24T00:36:21.489Z,99512.53
2022-10-24T00:38:51.176Z,99573.41
2022-10-24T00:41:35.021Z,99569.72
2022-10-24T00:44:27.765Z,99564.28
2022-10-24T00:47:16.042Z,99499.81
2022-10-24T00:50:02.244Z,99512.25
2022-10-24T00:52:38.325Z,99511.31
2022-10-24T00:55:08.710Z,99504.06
2022-10-24T00:57:55.285Z,99527.69
2022-10-24T01:00:31.442Z,99494.97
2022-10-24T01:03:01.681Z,99488.06
2022-10-24T01:05:46.334Z,99541.25
2022-10-24T01:08:47.671Z,99547.50
2022-10-24T01:11:46.502Z,99551.81
2022-10-24T01:14:45.615Z,99551.53
2022-10-24T01:17:27.327Z,99549.53
2022-10-24T01:19:57.998Z,99550.59
2022-10-24T01:22:55.420Z,99548.31
2022-10-24T01:25:59.006Z,99561.56
2022-10-24T01:29:07.329Z,99558.31
2022-10-24T01:31:56.106Z,99555.44
2022-10-24T01:34:40.118Z,99549.88
2022-10-24T01:37:25.519Z,99549.59
2022-10-24T01:40:02.681Z,99507.72
2022-10-24T01:42:34.169Z,99506.59
2022-10-24T01:45:03.964Z,99553.25
2022-10-24T01:47:42.325Z,99550.44
2022-10-24T01:50:13.782Z,99548.78
2022-10-24T01:52:45.707Z,99564.72
2022-10-24T01:55:14.537Z,99506.44
2022-10-24T01:57:43.003Z,99518.97
2022-10-24T02:00:21.189Z,99539.56
2022-10-24T02:03:16.636Z,99523.22
2022-10-24T02:05:51.012Z,99546.31
2022-10-24T02:08:28.483Z,99547.97
2022-10-24T02:11:02.613Z,99545.88
2022-10-24T02:13:59.494Z,99556.19
2022-10-24T02:16:28.068Z,99553.53
2022-10-24T02:18:59.844Z,99537.19
2022-10-24T02:22:15.358Z,99551.00
2022-10-24T02:25:00.482Z,99549.88
2022-10-24T02:27:55.865Z,99560.13
2022-10-24T02:30:26.763Z,99506.75
2022-10-24T02:32:58.571Z,99517.31
2022-10-24T02:35:29.587Z,99539.72
2022-10-24T02:38:39.357Z,99546.72
2022-10-24T02:41:13.937Z,99551.91
2022-10-24T02:43:44.696Z,99537.75
2022-10-24T02:46:13.879Z,99539.31
2022-10-24T02:48:48.149Z,99527.63
2022-10-24T02:51:20.664Z,99463.81
2022-10-24T02:53:51.899Z,99522.47
2022-10-24T02:56:20.039Z,99523.59
2022-10-24T02:58:48.450Z,99520.50
2022-10-24T03:01:16.535Z,99507.53
2022-10-24T03:03:44.916Z,99514.25
2022-10-24T03:06:15.136Z,99518.03
2022-10-24T03:08:43.414Z,99478.19
2022-10-24T03:11:11.958Z,99517.75
2022-10-24T03:13:39.845Z,99514.66
2022-10-24T03:16:11.618Z,99512.44
2022-10-24T03:18:42.218Z,99513.16
2022-10-24T03:21:10.197Z,99462.66
2022-10-24T03:23:38.292Z,99499.97
2022-10-24T03:26:06.562Z,99496.09
2022-10-24T03:28:35.799Z,99506.56
2022-10-24T03:31:04.131Z,99504.91
2022-10-24T03:33:32.488Z,99505.47
2022-10-24T03:36:00.875Z,99519.31
2022-10-24T03:38:28.955Z,99510.34
2022-10-24T03:40:56.963Z,99473.44
2022-10-24T03:43:25.959Z,99496.22
2022-10-24T03:45:53.891Z,99499.59
2022-10-24T03:48:23.052Z,99494.94
2022-10-24T03:50:50.961Z,99496.94
2022-10-24T03:53:19.724Z,99490.06
2022-10-24T03:55:47.809Z,99477.94
2022-10-24T03:58:15.715Z,99483.34
2022-10-24T04:00:43.998Z,99416.84
2022-10-24T04:03:12.782Z,99477.78
2022-10-24T04:05:41.420Z,99481.25
2022-10-24T04:08:09.520Z,99474.44
2022-10-24T04:10:37.495Z,99482.22
2022-10-24T04:13:05.535Z,99449.94
2022-10-24T04:15:33.683Z,99449.94
2022-10-24T04:18:01.998Z,99465.75
2022-10-24T04:20:30.830Z,99472.16
2022-10-24T04:23:01.195Z,99443.66
2022-10-24T04:25:32.898Z,99471.88
2022-10-24T04:28:01.079Z,99472.44
2022-10-24T04:30:29.681Z,99461.28
2022-10-24T04:32:57.829Z,99456.66
2022-10-24T04:35:26.677Z,99457.50
2022-10-24T04:37:54.889Z,99461.84
2022-10-24T04:40:23.118Z,99433.06
2022-10-24T04:42:51.056Z,99449.97
2022-10-24T04:45:19.366Z,99427.47
2022-10-24T04:47:48.771Z,99458.63
2022-10-24T04:50:17.860Z,99454.84
2022-10-24T04:52:56.220Z,99474.16
2022-10-24T04:55:24.389Z,99427.88
2022-10-24T04:57:52.308Z,99474.00
2022-10-24T05:00:20.615Z,99473.84
2022-10-24T05:02:54.145Z,99449.28
2022-10-24T05:05:25.557Z,99478.47
2022-10-24T05:07:53.592Z,99452.06
2022-10-24T05:10:21.581Z,99472.72
2022-10-24T05:12:49.689Z,99469.09
2022-10-24T05:15:19.029Z,99469.09
2022-10-24T05:17:47.052Z,99462.09
2022-10-24T05:20:16.784Z,99448.41
2022-10-24T05:22:45.028Z,99454.00
2022-10-24T05:25:13.626Z,99445.88
2022-10-24T05:27:41.753Z,99412.78
2022-10-24T05:30:10.909Z,99461.69
2022-10-24T05:32:39.817Z,99455.38
2022-10-24T05:35:09.580Z,99466.28
2022-10-24T05:37:39.326Z,99435.13
2022-10-24T05:40:12.202Z,99456.22
2022-10-24T05:42:40.800Z,99477.00
2022-10-24T05:45:11.221Z,99455.72
2022-10-24T05:47:39.367Z,99460.19
2022-10-24T05:50:08.407Z,99459.50
2022-10-24T05:52:36.679Z,99443.13
2022-10-24T05:55:07.917Z,99439.63
2022-10-24T05:57:38.581Z,99361.81
2022-10-24T06:00:14.687Z,99387.56
2022-10-24T06:02:43.590Z,99418.84
2022-10-24T06:05:13.493Z,99415.47
2022-10-24T06:07:44.746Z,99368.09
2022-10-24T06:10:14.925Z,99411.34
2022-10-24T06:12:43.199Z,99412.19
2022-10-24T06:15:13.130Z,99415.13
2022-10-24T06:17:41.754Z,99409.47
2022-10-24T06:20:12.430Z,99380.44
2022-10-24T06:22:41.001Z,99411.56
2022-10-24T06:25:09.521Z,99410.00
2022-10-24T06:27:37.500Z,99407.41
2022-10-24T06:30:06.872Z,99409.00
2022-10-24T06:32:34.890Z,99359.81
2022-10-24T06:35:03.595Z,99389.03
2022-10-24T06:37:31.680Z,99378.59
2022-10-24T06:39:59.955Z,99350.69
2022-10-24T06:42:27.967Z,99369.47
2022-10-24T06:44:56.058Z,99392.75
2022-10-24T06:47:24.439Z,99372.41
2022-10-24T06:49:52.424Z,99398.72
2022-10-24T06:52:20.640Z,99357.28
2022-10-24T06:54:52.106Z,99397.34
2022-10-24T06:57:20.365Z,99414.00
2022-10-24T06:59:49.390Z,99395.81
2022-10-24T07:02:18.177Z,99393.53
2022-10-24T07:04:48.584Z,99410.00
2022-10-24T07:07:22.367Z,99375.91
2022-10-24T07:09:57.037Z,99400.09
2022-10-24T07:12:27.095Z,99406.88
2022-10-24T07:14:55.396Z,99402.22
2022-10-24T07:17:24.614Z,99388.22
2022-10-24T07:19:54.232Z,99403.59
2022-10-24T07:22:22.322Z,99407.97
2022-10-24T07:24:57.026Z,99359.72
2022-10-24T07:27:25.009Z,99410.44
2022-10-24T07:29:53.400Z,99415.16
2022-10-24T07:32:22.098Z,99403.28
2022-10-24T07:34:50.200Z,99359.63
2022-10-24T07:37:19.056Z,99399.56
2022-10-24T07:39:47.416Z,99430.50
2022-10-24T07:42:16.796Z,99444.72
2022-10-24T07:44:46.068Z,99374.00
2022-10-24T07:47:15.456Z,99452.41
2022-10-24T07:49:43.375Z,99453.25
2022-10-24T07:52:11.294Z,99429.56
2022-10-24T07:54:39.397Z,99456.44
2022-10-24T07:57:07.775Z,99449.09
2022-10-24T07:59:42.262Z,99447.44
2022-10-24T08:02:16.022Z,99420.56
2022-10-24T08:04:44.214Z,99454.66
2022-10-24T08:07:15.986Z,99433.47
2022-10-24T08:09:48.134Z,99408.22
2022-10-24T08:12:16.382Z,99437.84
2022-10-24T08:14:44.730Z,99439.00
2022-10-24T08:17:13.735Z,99423.66
2022-10-24T08:19:43.902Z,99432.19
2022-10-24T08:22:12.966Z,99421.31
2022-10-24T08:24:44.938Z,99416.97
2022-10-24T08:27:16.492Z,99412.41
2022-10-24T08:29:44.444Z,99375.50
2022-10-24T08:32:12.720Z,99414.81
2022-10-24T08:34:40.567Z,99388.09
2022-10-24T08:37:08.506Z,99393.00
2022-10-24T08:39:38.374Z,99387.47
2022-10-24T08:42:13.901Z,99354.06
2022-10-24T08:44:47.466Z,99382.69
2022-10-24T08:47:42.586Z,99310.44
2022-10-24T08:50:33.734Z,99380.72
2022-10-24T08:53:06.740Z,99366.53
2022-10-24T08:55:50.278Z,99334.41
2022-10-24T08:58:40.983Z,99350.53
2022-10-24T09:01:21.677Z,99349.13
2022-10-24T09:03:57.259Z,99345.06
2022-10-24T09:06:32.660Z,99303.53
2022-10-24T09:09:11.045Z,99329.38
2022-10-24T09:11:57.600Z,99316.88
2022-10-24T09:14:33.947Z,99324.72
2022-10-24T09:17:23.947Z,99335.03
2022-10-24T09:20:22.118Z,99327.00
2022-10-24T09:22:50.475Z,99272.72
2022-10-24T09:25:24.432Z,99304.69
2022-10-24T09:27:52.566Z,99320.59
2022-10-24T09:30:30.050Z,99328.94
2022-10-24T09:33:30.909Z,99326.69
2022-10-24T09:36:03.247Z,99285.81
2022-10-24T09:38:36.720Z,99265.34
2022-10-24T09:41:19.390Z,99299.59
2022-10-24T09:43:58.895Z,99278.63
2022-10-24T09:46:39.855Z,99331.97
2022-10-24T09:49:23.096Z,99267.41
2022-10-24T09:52:27.205Z,99341.31
2022-10-24T09:55:17.506Z,99307.44
2022-10-24T09:57:46.564Z,99324.47
2022-10-24T10:00:32.382Z,99321.59
2022-10-24T10:03:22.803Z,99323.31
2022-10-24T10:05:58.136Z,99274.31
2022-10-24T10:08:32.679Z,99305.72
2022-10-24T10:11:05.050Z,99308.78
2022-10-24T10:13:46.062Z,99307.50
2022-10-24T10:16:28.685Z,99332.25
2022-10-24T10:19:21.034Z,99322.97
2022-10-24T10:22:06.810Z,99277.34
2022-10-24T10:24:40.166Z,99264.97
2022-10-24T10:27:37.979Z,99288.56
2022-10-24T10:30:21.374Z,99311.97
2022-10-24T10:33:54.462Z,99302.44
2022-10-24T10:36:42.407Z,99238.09
2022-10-24T10:39:32.829Z,99224.31
2022-10-24T10:42:22.278Z,99309.19
2022-10-24T10:45:23.084Z,99314.41
2022-10-24T10:48:33.082Z,99300.66
2022-10-24T10:51:24.158Z,99295.94
2022-10-24T10:54:03.580Z,99297.09
2022-10-24T10:56:43.682Z,99303.31
2022-10-24T10:59:41.958Z,99311.00
2022-10-24T11:02:49.492Z,99318.41
2022-10-24T11:05:40.482Z,99306.66
2022-10-24T11:08:28.015Z,99278.19
2022-10-24T11:11:05.132Z,99258.00
2022-10-24T11:13:49.192Z,99257.91
2022-10-24T11:16:25.255Z,99222.63
2022-10-24T11:19:01.602Z,99265.41
2022-10-24T11:21:34.223Z,99241.75
2022-10-24T11:24:16.985Z,99197.38
2022-10-24T11:27:24.400Z,99241.63
2022-10-24T11:30:05.323Z,99225.81
2022-10-24T11:32:59.506Z,99230.34
2022-10-24T11:35:33.540Z,99245.34
2022-10-24T11:38:20.871Z,99216.34
2022-10-24T11:40:58.647Z,99221.78
2022-10-24T11:43:41.060Z,99201.84
2022-10-24T11:46:22.528Z,99211.81
2022-10-24T11:49:05.146Z,99231.53
2022-10-24T11:51:59.068Z,99182.84
2022-10-24T11:54:41.590Z,99219.88
2022-10-24T11:57:36.253Z,99180.97
2022-10-24T12:00:08.333Z,99198.84
2022-10-24T12:03:25.979Z,99137.81
2022-10-24T12:06:28.720Z,99207.47
2022-10-24T12:09:52.367Z,99203.97
2022-10-24T12:12:56.963Z,99207.97
2022-10-24T12:15:57.643Z,99211.69
2022-10-24T12:18:44.498Z,99114.34
2022-10-24T12:21:27.447Z,99197.56
2022-10-24T12:23:59.208Z,99190.13
2022-10-24T12:26:31.180Z,99178.66
2022-10-24T12:29:06.465Z,99189.63
2022-10-24T12:31:38.955Z,99199.53
2022-10-24T12:34:19.175Z,99199.31
2022-10-24T12:37:12.353Z,99201.88
2022-10-24T12:39:50.971Z,99198.13
2022-10-24T12:42:26.120Z,99212.06
2022-10-24T12:45:08.867Z,99191.94
2022-10-24T12:50:34.388Z,99213.16
2022-10-24T12:53:21.643Z,99199.09
2022-10-24T12:55:49.489Z,99204.03
2022-10-24T12:58:35.686Z,99205.63
2022-10-24T13:01:35.427Z,99188.19
2022-10-24T13:04:47.634Z,99196.72
2022-10-24T13:07:50.772Z,99191.13
2022-10-24T13:10:34.817Z,99185.56
2022-10-24T13:13:24.731Z,99187.44
2022-10-24T13:16:07.406Z,99173.88
2022-10-24T13:19:03.483Z,99161.34
2022-10-24T13:24:35.025Z,99180.09
2022-10-24T13:27:12.979Z,99160.41
2022-10-24T13:29:44.506Z,99159.97
2022-10-24T13:32:18.699Z,99166.66
2022-10-24T13:34:54.488Z,99166.00
2022-10-24T13:37:45.440Z,99130.16
2022-10-24T13:40:46.271Z,99119.75
2022-10-24T13:43:21.515Z,99125.59
2022-10-24T13:46:13.036Z,99158.78
2022-10-24T13:48:48.403Z,99100.28
2022-10-24T13:51:46.632Z,99015.16
2022-10-24T13:54:22.500Z,99165.38
2022-10-24T13:56:50.832Z,99163.66
2022-10-24T13:59:39.483Z,99119.28
2022-10-24T14:02:19.781Z,99163.34
2022-10-24T14:04:53.679Z,99114.31
2022-10-24T14:07:33.877Z,99150.13
2022-10-24T14:10:22.912Z,99111.00
2022-10-24T14:12:57.027Z,99150.66
2022-10-24T14:15:33.003Z,99118.69
2022-10-24T14:18:08.594Z,99159.09
2022-10-24T14:20:38.183Z,99124.94
2022-10-24T14:23:28.362Z,99165.09
2022-10-24T14:26:11.906Z,99173.16
2022-10-24T14:28:51.994Z,99168.47
2022-10-24T14:31:26.850Z,99167.66
2022-10-24T14:33:57.006Z,99167.50
2022-10-24T14:36:32.018Z,99158.50
2022-10-24T14:39:01.293Z,99171.50
2022-10-24T14:41:35.111Z,99172.41
2022-10-24T14:44:05.004Z,99172.47
2022-10-24T14:46:46.879Z,99171.78
2022-10-24T14:49:26.658Z,99170.03
2022-10-24T14:52:02.554Z,99167.38
2022-10-24T14:54:35.482Z,99169.09
2022-10-24T14:57:10.309Z,99192.78
2022-10-24T14:59:46.572Z,99182.63
2022-10-24T15:02:29.441Z,99145.06
2022-10-24T15:05:40.349Z,99171.44
2022-10-24T15:08:26.545Z,99165.97
2022-10-24T15:11:25.251Z,99143.97
2022-10-24T15:14:06.110Z,99162.66
2022-10-24T15:16:42.824Z,99160.81
2022-10-24T15:19:18.269Z,99132.59
2022-10-24T15:21:47.450Z,99158.50
2022-10-24T15:24:27.869Z,99177.09
2022-10-24T15:27:14.257Z,99161.16
2022-10-24T15:29:42.288Z,99170.56
2022-10-24T15:32:11.578Z,99171.31
2022-10-24T15:34:41.054Z,99113.75
2022-10-24T15:37:23.163Z,99171.84
2022-10-24T15:39:52.839Z,99180.41
2022-10-24T15:42:22.682Z,99160.25
2022-10-24T15:44:51.179Z,99165.31
2022-10-24T15:47:23.946Z,99177.88
2022-10-24T15:49:52.526Z,99184.31
2022-10-24T15:52:20.608Z,99162.16
2022-10-24T15:54:48.569Z,99188.56
2022-10-24T15:57:18.665Z,99189.66
2022-10-24T15:59:46.653Z,99198.50
2022-10-24T16:02:22.016Z,99202.03
2022-10-24T16:04:51.297Z,99194.41
2022-10-24T16:07:21.012Z,99207.97
2022-10-24T16:09:49.149Z,99211.13
2022-10-24T16:12:18.979Z,99195.41
2022-10-24T16:14:54.903Z,99218.00
2022-10-24T16:17:23.092Z,99221.34
2022-10-24T16:19:51.067Z,99156.00
2022-10-24T16:22:19.237Z,99207.16
2022-10-24T16:24:47.264Z,99221.56
2022-10-24T16:27:15.873Z,99179.25
2022-10-24T16:29:43.990Z,99158.94
2022-10-24T16:32:14.937Z,99183.38
2022-10-24T16:34:45.336Z,99234.56
2022-10-24T16:37:13.877Z,99197.53
2022-10-24T16:39:42.857Z,99240.78
2022-10-24T16:42:11.296Z,99135.09
2022-10-24T16:44:39.320Z,99235.91
2022-10-24T16:47:07.606Z,99230.25
2022-10-24T16:49:36.178Z,99188.41
2022-10-24T16:52:04.221Z,99222.16
2022-10-24T16:54:32.197Z,99191.44
2022-10-24T16:57:40.898Z,99219.47
2022-10-24T17:00:15.311Z,99170.84
2022-10-24T17:02:51.293Z,99198.88
2022-10-24T17:05:22.791Z,99240.94
2022-10-24T17:07:54.016Z,99217.56
2022-10-24T17:10:56.507Z,99244.44
2022-10-24T17:13:25.411Z,99160.69
2022-10-24T17:15:54.073Z,99245.91
2022-10-24T17:18:23.688Z,99256.94
2022-10-24T17:20:54.855Z,99246.09
2022-10-24T17:23:23.220Z,99252.63
2022-10-24T17:25:51.945Z,99250.75
2022-10-24T17:28:20.263Z,99220.31
2022-10-24T17:30:48.699Z,99263.81
2022-10-24T17:33:17.035Z,99254.94
2022-10-24T17:35:56.042Z,99238.66
2022-10-24T17:38:52.436Z,99260.69
2022-10-24T17:41:33.849Z,99251.19
2022-10-24T17:44:03.902Z,99252.53
2022-10-24T17:46:32.384Z,99256.72
2022-10-24T17:49:00.575Z,99222.75
2022-10-24T17:51:28.776Z,99234.88
2022-10-24T17:53:56.946Z,99206.06
2022-10-24T17:56:25.941Z,99256.75
2022-10-24T17:58:54.585Z,99264.25
2022-10-24T18:01:22.966Z,99211.22
2022-10-24T18:03:51.793Z,99253.19
2022-10-24T18:06:20.709Z,99237.19
2022-10-24T18:08:49.023Z,99195.00
2022-10-24T18:11:17.258Z,99201.88
2022-10-24T18:13:45.425Z,99246.69
2022-10-24T18:16:17.103Z,99242.75
2022-10-24T18:18:47.199Z,99194.56
2022-10-24T18:21:24.921Z,99249.00
2022-10-24T18:23:54.451Z,99240.59
2022-10-24T18:26:26.306Z,99200.44
2022-10-24T18:28:58.350Z,99193.72
2022-10-24T18:31:29.713Z,99205.09
2022-10-24T18:34:04.859Z,99249.28
2022-10-24T18:36:37.136Z,99251.16
2022-10-24T18:39:06.194Z,99233.72
2022-10-24T18:41:56.138Z,99220.38
2022-10-24T18:44:37.313Z,99246.72
2022-10-24T18:47:08.135Z,99238.22
2022-10-24T18:49:36.753Z,99241.91
2022-10-24T18:52:11.211Z,99246.59
2022-10-24T18:55:06.873Z,99233.91
2022-10-24T18:57:36.994Z,99226.75
2022-10-24T19:00:07.109Z,99242.25
2022-10-24T19:02:58.886Z,99242.94
2022-10-24T19:06:08.612Z,99222.94
2022-10-24T19:08:37.180Z,99215.25
2022-10-24T19:14:00.372Z,99205.22
2022-10-24T19:16:31.707Z,99224.09
2022-10-24T19:19:02.304Z,99232.75
2022-10-24T19:21:30.396Z,99218.91
2022-10-24T19:24:02.124Z,99175.84
2022-10-24T19:26:30.189Z,99221.25
2022-10-24T19:29:01.067Z,99210.91
2022-10-24T19:31:31.693Z,99186.22
2022-10-24T19:33:59.992Z,99231.75
2022-10-24T19:36:28.183Z,99189.56
2022-10-24T19:38:58.283Z,99234.78
2022-10-24T19:41:27.240Z,99221.56
2022-10-24T19:43:55.643Z,99215.22
2022-10-24T19:46:23.852Z,99221.22
2022-10-24T19:48:55.494Z,99152.25
2022-10-24T19:51:25.524Z,99226.88
2022-10-24T19:53:53.738Z,99199.69
2022-10-24T19:56:27.048Z,99205.34
2022-10-24T19:59:02.072Z,99172.00
2022-10-24T20:01:31.047Z,99209.53
2022-10-24T20:04:00.946Z,99187.19
2022-10-24T20:06:31.565Z,99204.38
2022-10-24T20:09:00.376Z,99218.06
2022-10-24T20:11:28.817Z,99170.84
2022-10-24T20:13:57.329Z,99224.56
2022-10-24T20:16:25.965Z,99220.09
2022-10-24T20:18:58.427Z,99228.75
2022-10-24T20:21:29.973Z,99237.09
2022-10-24T20:24:00.403Z,99188.53
2022-10-24T20:26:28.801Z,99242.78
2022-10-24T20:28:58.288Z,99245.91
2022-10-24T20:31:32.409Z,99226.41
2022-10-24T20:34:07.979Z,99227.88
2022-10-24T20:36:44.779Z,99235.19
2022-10-24T20:39:16.364Z,99234.53
2022-10-24T20:42:12.376Z,99235.38
2022-10-24T20:44:40.447Z,99237.53
2022-10-24T20:47:08.422Z,99226.19
2022-10-24T20:49:36.456Z,99223.50
2022-10-24T20:52:04.998Z,99213.53
2022-10-24T20:54:37.723Z,99204.13
2022-10-24T20:57:05.689Z,99230.19
2022-10-24T20:59:33.896Z,99225.84
2022-10-24T21:02:02.292Z,99225.50
2022-10-24T21:04:30.283Z,99216.44
2022-10-24T21:06:58.258Z,99223.16
2022-10-24T21:09:26.321Z,99214.63
2022-10-24T21:11:55.236Z,99234.94
2022-10-24T21:14:23.197Z,99202.41
2022-10-24T21:16:51.237Z,99201.22
2022-10-24T21:19:19.170Z,99143.97
2022-10-24T21:21:47.168Z,99167.78
2022-10-24T21:24:25.146Z,99216.69
2022-10-24T21:26:54.113Z,99217.38
2022-10-24T21:29:32.666Z,99157.28
2022-10-24T21:32:02.094Z,99204.47
2022-10-24T21:34:33.433Z,99220.03
2022-10-24T21:37:04.448Z,99220.22
2022-10-24T21:39:33.336Z,99213.06
2022-10-24T21:42:01.253Z,99179.47
2022-10-24T21:44:30.838Z,99211.97
2022-10-24T21:46:58.983Z,99221.81
2022-10-24T21:49:26.972Z,99208.34
2022-10-24T21:51:54.915Z,99215.97
2022-10-24T21:54:25.439Z,99174.22
2022-10-24T21:56:53.492Z,99211.63
2022-10-24T21:59:22.711Z,99206.25
2022-10-24T22:01:52.273Z,99228.59
2022-10-24T22:04:20.768Z,99177.94
2022-10-24T22:06:49.646Z,99223.41
2022-10-24T22:09:21.199Z,99214.84
2022-10-24T22:11:51.076Z,99177.25
2022-10-24T22:14:19.509Z,99234.56
2022-10-24T22:16:48.046Z,99224.88
2022-10-24T22:19:16.536Z,99191.31
2022-10-24T22:22:00.465Z,99227.41
2022-10-24T22:24:58.634Z,99226.75
2022-10-24T22:27:26.612Z,99204.84
2022-10-24T22:29:54.607Z,99231.88
2022-10-24T22:32:23.252Z,99223.91
2022-10-24T22:34:52.301Z,99220.69
2022-10-24T22:37:30.174Z,99216.22
2022-10-24T22:39:58.488Z,99203.97
2022-10-24T22:42:26.580Z,99234.06
2022-10-24T22:44:55.166Z,99221.94
2022-10-24T22:47:46.664Z,99234.66
2022-10-24T22:50:53.502Z,99188.06
2022-10-24T22:53:31.393Z,99229.66
2022-10-24T22:56:19.855Z,99244.88
2022-10-24T22:58:48.226Z,99174.28
2022-10-24T23:02:01.828Z,99241.22
2022-10-24T23:05:10.971Z,99247.06
2022-10-24T23:08:04.402Z,99242.06
2022-10-24T23:10:33.313Z,99238.78
2022-10-24T23:13:01.486Z,99233.28
2022-10-24T23:15:30.094Z,99223.25
2022-10-24T23:17:58.598Z,99236.78
2022-10-24T23:20:36.493Z,99234.59
2022-10-24T23:23:17.148Z,99209.03
2022-10-24T23:26:36.224Z,99250.47
2022-10-24T23:29:20.271Z,99257.50
2022-10-24T23:31:48.780Z,99253.34
2022-10-24T23:34:17.123Z,99256.19
2022-10-24T23:36:45.606Z,99213.25
2022-10-24T23:39:15.069Z,99181.69
2022-10-24T23:41:43.546Z,99218.94
2022-10-24T23:44:12.064Z,99174.38
2022-10-24T23:46:46.927Z,99208.09
2022-10-24T23:50:08.186Z,99253.38
2022-10-24T23:53:16.544Z,99261.75
2022-10-24T23:55:44.825Z,99254.41
2022-10-24T23:58:12.908Z,99225.72
